Time;durP1;ratioP1;P1;durP2;ratioP2;P2;SDS_P1;SDS_P2;PMS_P1;PMS_P2;Temp;Humidity;BMP_temperature;BMP_pressure;BME280_temperature;BME280_humidity;BME280_pressure;Samples;Min_cycle;Max_cycle;Signal;HPM_P1;HPM_P2
2022/05/07 00:00:22;;;;;;;2.35;1.70;;;;;;;9.37;100.00;94728.91;4815348;29;20030;-95
2022/05/07 00:02:48;;;;;;;2.42;1.73;;;;;;;9.30;100.00;94716.84;4832471;29;20437;-96
2022/05/07 00:05:13;;;;;;;5.60;1.50;;;;;;;9.29;100.00;94717.09;4845116;29;20078;-95
2022/05/07 00:07:39;;;;;;;1.63;1.33;;;;;;;9.29;100.00;94714.47;4832738;29;20030;-96
2022/05/07 00:10:05;;;;;;;1.92;1.60;;;;;;;9.28;100.00;94713.69;4815036;29;20031;-96
2022/05/07 00:12:34;;;;;;;1.45;1.30;;;;;;;9.16;100.00;94721.69;4832074;29;20338;-94
2022/05/07 00:15:00;;;;;;;1.95;1.60;;;;;;;9.25;100.00;94722.03;4818716;29;20448;-95
2022/05/07 00:20:27;;;;;;;7.65;1.60;;;;;;;9.29;100.00;94712.66;4840755;29;20087;-95
2022/05/07 00:22:56;;;;;;;2.55;2.20;;;;;;;9.25;100.00;94702.94;4835068;29;20038;-96
2022/05/07 00:29:01;;;;;;;25.00;3.17;;;;;;;9.45;100.00;94720.63;4821895;29;20030;-95
2022/05/07 00:35:01;;;;;;;17.48;2.45;;;;;;;9.47;100.00;94711.50;4841490;29;20025;-95
2022/05/07 00:40:50;;;;;;;305.55;14.90;;;;;;;9.51;100.00;94714.38;4831008;29;20042;-96
2022/05/07 00:43:35;;;;;;;245.55;11.70;;;;;;;9.34;100.00;94719.75;4832968;29;20042;-96
2022/05/07 00:46:02;;;;;;;166.75;10.20;;;;;;;9.34;100.00;94728.38;4819301;29;20099;-96
2022/05/07 00:48:29;;;;;;;347.60;18.08;;;;;;;9.33;100.00;94718.19;4831853;29;20095;-96
2022/05/07 00:53:45;;;;;;;321.75;14.50;;;;;;;9.56;100.00;94719.66;4832994;29;20102;-96
2022/05/07 00:56:11;;;;;;;395.95;19.83;;;;;;;9.47;100.00;94710.69;4817128;29;20026;-96
2022/05/07 00:58:38;;;;;;;67.35;4.60;;;;;;;9.55;100.00;94712.03;4834392;29;20026;-96
2022/05/07 01:01:04;;;;;;;324.52;16.02;;;;;;;9.38;100.00;94709.56;4832750;29;20046;-96
2022/05/07 01:06:54;;;;;;;330.50;16.25;;;;;;;9.28;100.00;94716.31;4833931;29;20055;-96
2022/05/07 01:09:19;;;;;;;34.50;4.57;;;;;;;9.39;100.00;94713.75;4847741;29;20026;-96
2022/05/07 01:11:45;;;;;;;505.85;22.58;;;;;;;9.30;100.00;94718.66;4835680;29;20041;-96
2022/05/07 01:14:11;;;;;;;16.15;4.38;;;;;;;9.43;100.00;94710.41;4833591;29;20117;-96
2022/05/07 01:16:37;;;;;;;6.32;3.47;;;;;;;9.28;100.00;94711.09;4831633;29;20030;-96
2022/05/07 01:19:07;;;;;;;10.95;3.83;;;;;;;9.31;100.00;94701.94;4831904;29;20076;-96
2022/05/07 01:21:43;;;;;;;9.57;3.97;;;;;;;9.35;100.00;94703.03;4833235;29;20042;-96
2022/05/07 01:24:14;;;;;;;5.82;3.60;;;;;;;9.34;100.00;94704.06;4838888;29;20038;-96
2022/05/07 01:26:51;;;;;;;18.48;4.43;;;;;;;9.34;100.00;94704.06;4841394;29;20055;-96
2022/05/07 01:29:38;;;;;;;14.30;5.13;;;;;;;9.17;100.00;94702.34;4841877;29;20034;-96
2022/05/07 01:32:07;;;;;;;6.40;4.20;;;;;;;9.22;100.00;94699.00;4843150;29;20056;-96
2022/05/07 01:34:40;;;;;;;31.15;4.80;;;;;;;9.27;100.00;94706.09;4842831;29;20037;-96
2022/05/07 01:37:06;;;;;;;7.75;4.10;;;;;;;9.33;100.00;94700.66;4843221;29;20083;-96
2022/05/07 01:39:34;;;;;;;8.52;4.20;;;;;;;9.29;100.00;94696.97;4845160;29;20030;-96
2022/05/07 01:42:02;;;;;;;6.13;4.43;;;;;;;9.35;100.00;94692.56;4843845;29;20030;-96
2022/05/07 01:44:35;;;;;;;7.28;4.45;;;;;;;9.32;100.00;94693.84;4845305;29;20030;-96
2022/05/07 01:50:03;;;;;;;;;;;;;;;;;;;;;
2022/05/07 01:56:16;;;;;;;10.68;5.38;;;;;;;9.24;100.00;94683.06;4845440;29;20037;-96
2022/05/07 01:58:49;;;;;;;10.35;5.68;;;;;;;9.39;100.00;94685.78;4844197;29;20102;-96
2022/05/07 02:01:20;;;;;;;11.55;5.40;;;;;;;9.34;100.00;94686.53;4847481;29;20060;-96
2022/05/07 02:03:57;;;;;;;12.07;6.40;;;;;;;9.43;100.00;94694.69;4843640;29;20057;-96
2022/05/07 02:06:25;;;;;;;11.43;6.35;;;;;;;9.28;100.00;94690.16;4845009;29;20039;-96
2022/05/07 02:08:56;;;;;;;11.90;6.13;;;;;;;9.32;100.00;94687.81;4846536;29;20060;-96
2022/05/07 02:11:38;;;;;;;12.63;6.35;;;;;;;9.29;100.00;94690.94;4841814;29;20118;-96
2022/05/07 02:14:22;;;;;;;9.52;6.05;;;;;;;9.37;100.00;94698.34;4847627;29;20077;-96
2022/05/07 02:16:55;;;;;;;12.00;6.55;;;;;;;9.27;100.00;94691.22;4848557;29;20007;-96
2022/05/07 02:19:32;;;;;;;;;;;;;;;9.39;100.00;94683.19;4847008;29;20034;-96
2022/05/07 02:22:21;;;;;;;24.55;6.90;;;;;;;9.38;100.00;94686.03;4847771;29;19920;-96
2022/05/07 02:25:00;;;;;;;12.95;6.05;;;;;;;9.39;100.00;94680.56;4846659;29;20037;-96
2022/05/07 02:27:49;;;;;;;10.35;6.43;;;;;;;9.28;100.00;94679.72;4862511;29;20018;-96
2022/05/07 02:30:15;;;;;;;12.43;7.00;;;;;;;9.39;100.00;94683.19;4844353;29;20038;-96
2022/05/07 02:32:47;;;;;;;9.63;6.55;;;;;;;9.46;100.00;94678.50;4859744;29;20026;-96
2022/05/07 02:35:22;;;;;;;13.97;6.67;;;;;;;9.52;100.00;94678.56;4844238;29;20022;-96
2022/05/07 02:38:13;;;;;;;10.82;6.20;;;;;;;9.43;100.00;94670.38;4845723;29;20358;-96
2022/05/07 02:43:48;;;;;;;9.45;5.88;;;;;;;9.49;100.00;94669.38;4846054;29;20095;-96
2022/05/07 02:46:41;;;;;;;12.52;5.45;;;;;;;9.55;100.00;94659.72;4845934;29;20041;-96
2022/05/07 02:49:13;;;;;;;16.17;5.47;;;;;;;9.44;100.00;94651.81;4844089;29;20034;-96
2022/05/07 02:51:41;;;;;;;11.35;5.97;;;;;;;9.41;100.00;94652.31;4840507;29;20120;-96
2022/05/07 02:54:09;;;;;;;11.45;6.10;;;;;;;9.47;100.00;94647.91;4852119;29;20132;-96
2022/05/07 02:56:37;;;;;;;11.57;6.10;;;;;;;9.30;100.00;94650.69;4839224;29;20400;-96
2022/05/07 02:59:03;;;;;;;11.32;6.60;;;;;;;9.51;100.00;94653.44;4838892;29;20104;-96
2022/05/07 03:01:29;;;;;;;13.52;6.40;;;;;;;9.41;100.00;94657.56;4833884;29;20411;-96
2022/05/07 03:03:55;;;;;;;12.80;6.15;;;;;;;9.59;100.00;94650.31;4833418;29;20437;-96
2022/05/07 03:06:20;;;;;;;8.13;5.82;;;;;;;9.51;100.00;94640.34;4836126;29;20035;-96
2022/05/07 03:08:46;;;;;;;9.68;5.65;;;;;;;9.48;100.00;94636.41;4834323;29;20030;-96
2022/05/07 03:11:13;;;;;;;11.63;6.00;;;;;;;9.26;100.00;94650.41;4835313;29;20058;-96
2022/05/07 03:13:39;;;;;;;10.25;5.63;;;;;;;9.37;100.00;94642.63;4848687;29;20026;-96
2022/05/07 03:16:10;;;;;;;8.23;5.38;;;;;;;9.29;100.00;94647.28;4836155;29;20056;-96
2022/05/07 03:18:41;;;;;;;11.23;6.05;;;;;;;9.24;100.00;94652.47;4841072;29;20030;-96
2022/05/07 03:21:14;;;;;;;15.27;5.53;;;;;;;9.25;100.00;94650.66;4841212;29;20034;-96
2022/05/07 03:24:17;;;;;;;9.95;4.85;;;;;;;9.30;100.00;94642.84;4843380;29;20046;-96
2022/05/07 03:26:45;;;;;;;8.70;5.00;;;;;;;9.26;100.00;94645.19;4840978;29;20026;-96
2022/05/07 03:29:32;;;;;;;9.85;5.10;;;;;;;9.36;100.00;94644.47;4844679;29;20026;-96
2022/05/07 03:32:03;;;;;;;8.00;4.38;;;;;;;9.34;100.00;94631.63;4848079;29;20098;-96
2022/05/07 03:34:54;;;;;;;;;;;;;;;;;;;;;
2022/05/07 03:37:39;;;;;;;11.88;5.65;;;;;;;9.52;100.00;94645.31;4846639;29;20050;-96
2022/05/07 05:11:49;;;;;;;9.15;4.03;;;;;;;9.75;100.00;94700.91;5237619;23;20069;-93
2022/05/07 05:17:02;;;;;;;7.57;3.92;;;;;;;9.86;100.00;94691.28;4854639;29;20037;-93
2022/05/07 05:19:27;;;;;;;7.50;4.10;;;;;;;9.70;100.00;94687.81;4840143;29;20030;-95
2022/05/07 05:21:53;;;;;;;6.13;3.38;;;;;;;9.83;100.00;94689.19;4841712;29;20029;-93
2022/05/07 05:24:19;;;;;;;5.93;3.28;;;;;;;9.56;100.00;94687.47;4846064;29;20062;-93
2022/05/07 05:26:44;;;;;;;8.82;3.47;;;;;;;9.68;100.00;94700.34;4840644;29;20033;-95
2022/05/07 05:29:10;;;;;;;8.07;3.53;;;;;;;9.78;100.00;94695.19;4842786;29;20033;-93
2022/05/07 05:31:38;;;;;;;6.43;3.80;;;;;;;9.84;100.00;94696.78;4841347;29;20029;-93
2022/05/07 05:34:04;;;;;;;8.00;3.25;;;;;;;9.99;100.00;94697.91;4844239;29;20442;-95
2022/05/07 05:36:32;;;;;;;9.57;3.45;;;;;;;10.16;100.00;94701.13;4842137;29;20032;-95
2022/05/07 05:38:58;;;;;;;8.48;3.55;;;;;;;10.08;100.00;94701.59;4842761;29;20041;-95
2022/05/07 05:41:24;;;;;;;7.13;3.28;;;;;;;10.06;100.00;94695.06;4840770;29;20053;-94
2022/05/07 05:43:49;;;;;;;5.20;3.25;;;;;;;9.99;100.00;94693.44;4839566;29;20029;-95
2022/05/07 05:46:15;;;;;;;7.97;2.85;;;;;;;10.23;100.00;94694.84;4835652;29;20037;-94
2022/05/07 05:48:41;;;;;;;6.53;3.00;;;;;;;10.17;100.00;94696.66;4835661;29;20033;-94
2022/05/07 05:51:07;;;;;;;7.90;3.08;;;;;;;10.04;100.00;94695.31;4835712;29;20036;-95
2022/05/07 05:53:32;;;;;;;5.88;3.20;;;;;;;9.96;100.00;94699.19;4835623;29;20033;-93
2022/05/07 05:55:59;;;;;;;6.38;3.28;;;;;;;10.08;100.00;94708.69;4836452;29;20033;-94
2022/05/07 05:58:24;;;;;;;4.75;3.03;;;;;;;9.89;100.00;94709.09;4835721;29;20033;-94
2022/05/07 06:00:52;;;;;;;5.25;3.13;;;;;;;9.92;100.00;94708.59;4835489;29;20036;-94
2022/05/07 06:03:19;;;;;;;5.10;2.97;;;;;;;10.03;100.00;94712.06;4836367;29;20338;-95
2022/05/07 06:05:44;;;;;;;8.98;3.33;;;;;;;10.14;100.00;94705.03;4837058;29;20479;-95
2022/05/07 06:08:12;;;;;;;4.97;3.00;;;;;;;10.01;100.00;94699.22;4836426;29;20030;-94
2022/05/07 06:10:37;;;;;;;4.63;2.95;;;;;;;10.00;100.00;94697.63;4835530;29;20032;-93
2022/05/07 06:16:25;;;;;;;7.45;3.13;;;;;;;9.92;100.00;94692.91;4867275;29;20186;-94
2022/05/07 06:18:50;;;;;;;6.50;3.15;;;;;;;9.92;100.00;94698.13;4837908;29;20060;-95
2022/05/07 06:21:17;;;;;;;8.05;3.65;;;;;;;9.86;100.00;94699.13;4835518;29;20041;-95
2022/05/07 06:23:42;;;;;;;6.63;3.47;;;;;;;9.75;100.00;94709.56;4834838;29;20431;-96
2022/05/07 06:28:52;;;;;;;9.20;3.63;;;;;;;9.75;100.00;94714.81;4852818;29;20364;-95
2022/05/07 06:31:18;;;;;;;6.50;3.45;;;;;;;9.80;100.00;94718.47;4835125;29;20033;-96
2022/05/07 06:33:44;;;;;;;8.00;3.67;;;;;;;9.97;100.00;94718.28;4835307;29;20033;-95
2022/05/07 06:36:10;;;;;;;10.88;3.30;;;;;;;9.92;100.00;94707.81;4835027;29;20124;-95
2022/05/07 06:38:35;;;;;;;5.97;3.22;;;;;;;10.20;100.00;94704.03;4834920;29;20037;-95
2022/05/07 06:41:03;;;;;;;6.30;3.53;;;;;;;10.27;100.00;94696.69;4835169;29;20061;-95
2022/05/07 06:43:30;;;;;;;7.22;3.55;;;;;;;10.23;100.00;94705.31;4835229;29;20029;-94
2022/05/07 06:45:56;;;;;;;5.70;3.65;;;;;;;10.48;100.00;94709.91;4849925;29;20321;-94
2022/05/07 06:48:22;;;;;;;7.72;3.67;;;;;;;10.47;100.00;94700.44;4834617;29;20029;-95
2022/05/07 06:50:49;;;;;;;6.90;3.42;;;;;;;10.28;100.00;94700.91;4834686;29;20036;-94
2022/05/07 06:53:14;;;;;;;7.95;3.25;;;;;;;10.38;100.00;94705.38;4834706;29;20033;-95
2022/05/07 06:55:55;;;;;;;5.68;3.10;;;;;;;10.23;100.00;94702.69;4834819;29;20036;-94
2022/05/07 06:58:28;;;;;;;5.25;2.70;;;;;;;10.12;100.00;94704.50;4836430;29;20030;-95
2022/05/07 07:00:53;;;;;;;3.97;2.05;;;;;;;10.24;100.00;94715.56;4849581;29;20029;-92
2022/05/07 07:03:19;;;;;;;3.78;2.00;;;;;;;10.40;100.00;94711.16;4865724;29;20108;-93
2022/05/07 07:05:47;;;;;;;2.90;2.00;;;;;;;10.40;100.00;94705.13;4849173;29;20037;-91
2022/05/07 07:08:13;;;;;;;4.05;2.30;;;;;;;10.23;100.00;94698.25;4834054;29;20033;-90
2022/05/07 07:10:40;;;;;;;6.93;3.00;;;;;;;10.26;100.00;94700.38;4848913;29;20348;-90
2022/05/07 07:13:05;;;;;;;12.60;2.20;;;;;;;10.31;100.00;94707.47;4865419;29;20029;-91
2022/05/07 07:15:31;;;;;;;4.75;2.70;;;;;;;10.41;100.00;94709.34;4865499;29;20396;-94
2022/05/07 07:17:56;;;;;;;5.45;2.72;;;;;;;10.29;100.00;94707.72;4849058;29;20037;-94
2022/05/07 07:20:22;;;;;;;5.05;2.65;;;;;;;10.44;100.00;94711.44;4849053;29;20032;-92
2022/05/07 07:22:47;;;;;;;9.27;3.28;;;;;;;10.23;100.00;94706.13;4848985;29;20026;-92
2022/05/07 07:25:13;;;;;;;5.72;2.67;;;;;;;10.52;100.00;94710.16;4865225;29;20040;-93
2022/05/07 07:27:38;;;;;;;9.68;3.65;;;;;;;10.66;100.00;94703.38;4865175;29;20026;-91
2022/05/07 07:30:04;;;;;;;6.57;3.42;;;;;;;10.36;100.00;94698.84;4849173;29;20053;-89
2022/05/07 07:32:30;;;;;;;4.28;2.70;;;;;;;10.38;100.00;94712.47;4848848;29;20093;-92
2022/05/07 07:34:55;;;;;;;6.15;2.83;;;;;;;10.36;100.00;94707.47;4864726;29;20435;-93
2022/05/07 07:37:21;;;;;;;5.15;2.60;;;;;;;10.43;100.00;94710.69;4833972;29;20025;-91
2022/05/07 07:39:49;;;;;;;4.88;2.80;;;;;;;10.29;100.00;94710.31;4848878;29;20041;-92
2022/05/07 07:42:16;;;;;;;6.32;3.00;;;;;;;10.19;100.00;94715.53;4833895;29;20033;-95
2022/05/07 07:44:41;;;;;;;5.03;2.70;;;;;;;10.28;100.00;94713.22;4864885;29;20325;-92
2022/05/07 07:49:52;;;;;;;4.95;2.58;;;;;;;10.29;100.00;94720.81;4864922;29;20115;-92
2022/05/07 07:52:20;;;;;;;5.15;2.78;;;;;;;10.32;100.00;94727.38;4864732;29;20029;-90
2022/05/07 07:54:50;;;;;;;4.97;2.65;;;;;;;10.43;100.00;94722.97;4864941;29;20041;-91
2022/05/07 07:57:15;;;;;;;3.53;1.90;;;;;;;10.13;100.00;94733.06;4864726;29;20033;-90
2022/05/07 07:59:41;;;;;;;3.67;2.40;;;;;;;10.57;100.00;94734.53;4864601;29;20081;-90
2022/05/07 08:02:06;;;;;;;4.05;2.28;;;;;;;10.74;100.00;94742.19;4864890;29;20040;-90
2022/05/07 08:04:34;;;;;;;3.42;2.05;;;;;;;10.62;100.00;94739.03;4864574;29;20422;-90
2022/05/07 08:12:40;;;;;;;3.42;1.50;;;;;;;10.64;100.00;94723.81;4865424;29;20084;-88
2022/05/07 08:15:08;;;;;;;2.65;1.58;;;;;;;10.51;100.00;94726.94;4848475;29;20029;-88
2022/05/07 08:17:34;;;;;;;3.15;1.20;;;;;;;10.70;100.00;94738.53;4848755;29;20137;-88
2022/05/07 08:19:59;;;;;;;3.92;1.60;;;;;;;10.55;100.00;94739.25;4865057;29;20116;-88
2022/05/07 08:22:25;;;;;;;1.98;1.50;;;;;;;10.94;100.00;94734.63;4864990;29;20034;-87
2022/05/07 08:24:50;;;;;;;2.88;1.80;;;;;;;11.06;100.00;94721.28;4848172;29;20411;-88
2022/05/07 08:27:18;;;;;;;2.45;1.95;;;;;;;11.05;100.00;94723.13;4865668;29;20428;-88
2022/05/07 08:29:43;;;;;;;2.25;1.63;;;;;;;11.07;100.00;94722.84;4865542;29;20026;-88
2022/05/07 08:32:09;;;;;;;2.60;1.88;;;;;;;11.38;100.00;94720.22;4864418;29;20321;-90
2022/05/07 08:34:34;;;;;;;5.13;1.90;;;;;;;11.61;100.00;94724.13;4864485;29;20561;-88
2022/05/07 08:37:00;;;;;;;7.72;2.15;;;;;;;11.23;100.00;94716.56;4864584;29;20049;-90
2022/05/07 08:39:27;;;;;;;3.63;2.08;;;;;;;11.46;100.00;94722.34;4864021;29;20033;-90
2022/05/07 08:41:53;;;;;;;2.78;2.15;;;;;;;11.35;100.00;94729.44;4863732;29;20454;-91
2022/05/07 08:44:18;;;;;;;3.10;2.00;;;;;;;11.00;100.00;94725.72;4863893;29;20037;-91
2022/05/07 08:46:43;;;;;;;4.75;2.05;;;;;;;11.01;100.00;94722.06;4866526;29;20042;-91
2022/05/07 08:49:10;;;;;;;3.17;1.83;;;;;;;11.22;100.00;94727.31;4868211;29;20125;-91
2022/05/07 08:51:36;;;;;;;4.15;2.20;;;;;;;11.24;100.00;94733.09;4867825;29;20032;-91
2022/05/07 08:54:02;;;;;;;5.18;2.30;;;;;;;10.93;100.00;94735.69;4868335;29;20385;-91
2022/05/07 08:56:30;;;;;;;4.18;2.40;;;;;;;11.27;100.00;94727.31;4867844;29;20490;-91
2022/05/07 08:58:56;;;;;;;2.80;1.90;;;;;;;11.11;100.00;94721.28;4867800;29;20034;-91
2022/05/07 09:01:21;;;;;;;4.20;2.25;;;;;;;11.55;100.00;94733.88;4868042;29;20048;-91
2022/05/07 09:03:48;;;;;;;4.18;2.30;;;;;;;11.55;100.00;94728.63;4867496;29;20081;-91
2022/05/07 09:06:24;;;;;;;8.50;4.15;;;;;;;11.30;100.00;94732.84;4867898;29;20104;-91
2022/05/07 09:08:51;;;;;;;8.23;4.75;;;;;;;10.87;100.00;94732.28;4867924;29;20444;-91
2022/05/07 09:11:17;;;;;;;9.25;5.53;;;;;;;11.20;100.00;94734.66;4867515;29;20033;-89
2022/05/07 09:13:43;;;;;;;13.80;7.03;;;;;;;10.92;100.00;94739.34;4851213;29;20089;-91
2022/05/07 09:16:09;;;;;;;34.17;10.07;;;;;;;11.01;100.00;94735.97;4867660;29;20033;-90
2022/05/07 09:18:34;;;;;;;35.63;11.07;;;;;;;11.16;100.00;94732.56;4867452;29;20128;-90
2022/05/07 09:21:23;;;;;;;54.72;12.13;;;;;;;11.14;100.00;94736.50;4867407;29;20030;-91
2022/05/07 09:23:58;;;;;;;21.25;12.23;;;;;;;11.48;100.00;94733.34;4853442;29;20037;-91
2022/05/07 09:26:29;;;;;;;63.95;13.93;;;;;;;11.59;100.00;94734.91;4867540;29;20503;-91
2022/05/07 09:28:55;;;;;;;542.13;34.28;;;;;;;11.13;100.00;94725.22;4850669;29;20124;-91
2022/05/07 09:31:24;;;;;;;52.47;14.45;;;;;;;11.41;100.00;94738.09;4867267;29;20445;-88
2022/05/07 09:33:50;;;;;;;461.88;28.48;;;;;;;11.11;100.00;94732.56;4867294;29;20041;-89
2022/05/07 09:36:15;;;;;;;407.65;28.48;;;;;;;10.95;100.00;94738.84;4867412;29;20025;-88
2022/05/07 09:38:40;;;;;;;188.57;17.85;;;;;;;11.05;100.00;94741.47;4867635;29;20169;-91
2022/05/07 09:41:06;;;;;;;44.63;15.23;;;;;;;11.07;100.00;94742.00;4850344;29;20049;-91
2022/05/07 09:43:32;;;;;;;505.50;33.28;;;;;;;11.20;100.00;94743.31;4850444;29;20044;-89
2022/05/07 09:45:58;;;;;;;604.83;37.85;;;;;;;11.05;100.00;94743.31;4850608;29;20045;-89
2022/05/07 09:48:24;;;;;;;368.40;26.45;;;;;;;10.92;100.00;94741.97;4850572;29;20037;-89
2022/05/07 09:50:50;;;;;;;308.23;26.35;;;;;;;11.36;100.00;94741.50;4850605;29;20359;-88
2022/05/07 09:58:49;;;;;;;40.00;15.40;;;;;;;11.11;100.00;94734.38;4853088;29;20045;-88
2022/05/07 10:01:21;;;;;;;222.90;23.45;;;;;;;10.94;100.00;94735.41;4835079;29;20037;-88
2022/05/07 10:04:14;;;;;;;205.13;20.55;;;;;;;11.29;100.00;94735.72;4866468;29;20033;-89
2022/05/07 10:07:07;;;;;;;115.05;20.30;;;;;;;11.30;100.00;94737.28;4866652;29;20074;-91
2022/05/07 10:10:03;;;;;;;319.08;25.45;;;;;;;10.89;100.00;94738.03;4873119;29;20033;-88
2022/05/07 10:12:29;;;;;;;43.60;17.67;;;;;;;10.86;100.00;94744.56;4886021;29;20132;-88
2022/05/07 10:15:08;;;;;;;80.60;20.55;;;;;;;11.18;100.00;94748.03;4885559;29;20072;-88
2022/05/07 10:17:35;;;;;;;70.70;20.17;;;;;;;11.17;100.00;94734.13;4869722;29;20089;-88
2022/05/07 10:20:09;;;;;;;34.67;17.83;;;;;;;11.09;100.00;94728.63;4854307;29;20024;-88
2022/05/07 10:22:35;;;;;;;49.08;19.23;;;;;;;10.79;100.00;94732.75;4854394;29;20131;-91
2022/05/07 10:25:12;;;;;;;40.85;17.92;;;;;;;10.93;100.00;94736.47;4868555;29;20132;-89
2022/05/07 10:27:41;;;;;;;40.42;18.33;;;;;;;10.68;100.00;94734.59;4868595;29;20077;-90
2022/05/07 10:30:14;;;;;;;34.55;17.52;;;;;;;11.02;100.00;94731.50;4868542;29;20057;-88
2022/05/07 10:32:49;;;;;;;;;;;;;;;10.96;100.00;94729.91;4868895;29;20029;-89
2022/05/07 10:35:14;;;;;;;34.22;17.48;;;;;;;11.09;100.00;94718.94;4884805;29;20010;-88
2022/05/07 10:37:41;;;;;;;38.05;18.42;;;;;;;11.03;100.00;94714.72;4868574;29;20037;-89
2022/05/07 10:40:13;;;;;;;36.35;17.50;;;;;;;11.17;100.00;94721.00;4868488;29;20347;-89
2022/05/07 10:42:39;;;;;;;28.48;16.48;;;;;;;11.34;100.00;94714.75;4862226;29;20056;-89
2022/05/07 10:45:22;;;;;;;31.48;16.60;;;;;;;11.45;100.00;94711.03;4865974;29;20045;-89
2022/05/07 10:47:57;;;;;;;30.63;15.45;;;;;;;11.77;100.00;94708.41;4846991;29;20393;-90
2022/05/07 10:50:23;;;;;;;32.67;16.55;;;;;;;11.59;100.00;94700.00;4849145;29;20094;-90
2022/05/07 10:52:56;;;;;;;29.73;15.52;;;;;;;11.87;100.00;94698.66;4848148;29;20037;-89
2022/05/07 10:55:26;;;;;;;26.85;13.07;;;;;;;11.98;100.00;94686.28;4837714;29;20021;-90
2022/05/07 10:57:52;;;;;;;29.23;14.73;;;;;;;12.04;100.00;94686.28;4849463;29;20029;-89
2022/05/07 11:00:22;;;;;;;25.10;14.32;;;;;;;12.16;100.00;94687.56;4849756;29;20037;-89
2022/05/07 11:02:49;;;;;;;22.63;13.23;;;;;;;12.66;100.00;94681.53;4849781;29;20029;-90
2022/05/07 11:05:15;;;;;;;20.90;13.23;;;;;;;12.77;100.00;94670.94;4834200;29;20117;-90
2022/05/07 11:07:40;;;;;;;27.73;14.85;;;;;;;12.16;100.00;94679.69;4849245;29;20029;-89
2022/05/07 11:10:07;;;;;;;28.70;14.00;;;;;;;12.33;100.00;94675.13;4848720;29;20108;-89
2022/05/07 11:12:53;;;;;;;26.13;14.02;;;;;;;13.56;100.00;94670.09;4849507;29;20145;-90
2022/05/07 11:15:27;;;;;;;27.27;12.73;;;;;;;14.02;100.00;94668.81;4849372;29;20360;-90
2022/05/07 11:17:52;;;;;;;23.45;13.05;;;;;;;13.80;100.00;94671.97;4849591;29;20086;-89
2022/05/07 11:20:38;;;;;;;26.35;13.40;;;;;;;14.82;100.00;94666.50;4849182;29;20380;-89
2022/05/07 11:23:05;;;;;;;20.63;12.20;;;;;;;15.13;100.00;94676.56;4866155;29;20029;-90
2022/05/07 11:25:31;;;;;;;22.13;12.85;;;;;;;14.60;100.00;94671.50;4865416;29;20037;-89
2022/05/07 11:27:58;;;;;;;28.60;13.52;;;;;;;13.83;100.00;94671.41;4865447;29;20046;-91
2022/05/07 11:30:26;;;;;;;28.92;14.57;;;;;;;13.85;100.00;94671.91;4833553;29;20082;-91
2022/05/07 11:33:05;;;;;;;22.30;13.48;;;;;;;13.67;100.00;94671.56;4865484;29;20467;-91
2022/05/07 11:35:33;;;;;;;23.38;12.77;;;;;;;14.26;100.00;94666.16;4848706;29;20501;-90
2022/05/07 11:38:01;;;;;;;23.80;14.13;;;;;;;13.25;100.00;94659.81;4865170;29;20036;-89
2022/05/07 11:40:28;;;;;;;33.03;15.27;;;;;;;12.91;100.00;94665.84;4849113;29;20029;-90
2022/05/07 11:45:38;;;;;;;29.25;13.35;;;;;;;12.57;100.00;94662.16;4865259;29;20505;-89
2022/05/07 11:48:09;;;;;;;28.42;12.98;;;;;;;12.95;100.00;94672.16;4849050;29;20041;-90
2022/05/07 11:50:41;;;;;;;25.13;13.55;;;;;;;12.97;100.00;94672.66;4865361;29;20059;-89
2022/05/07 11:53:20;;;;;;;23.92;13.40;;;;;;;12.58;100.00;94663.72;4849159;29;20048;-89
2022/05/07 11:55:48;;;;;;;22.77;12.85;;;;;;;12.64;100.00;94659.97;4848775;29;20443;-89
2022/05/07 11:58:24;;;;;;;25.13;13.00;;;;;;;12.49;100.00;94666.13;4848282;29;20033;-90
2022/05/07 12:00:51;;;;;;;29.13;14.05;;;;;;;12.35;100.00;94671.19;4864803;29;20056;-88
2022/05/07 12:03:18;;;;;;;23.88;12.98;;;;;;;12.64;100.00;94665.25;4864912;29;20058;-87
2022/05/07 12:05:44;;;;;;;24.70;13.88;;;;;;;12.35;100.00;94665.94;4848465;29;20421;-85
2022/05/07 12:08:18;;;;;;;23.50;13.43;;;;;;;12.78;100.00;94667.25;4848117;29;20029;-88
2022/05/07 12:10:47;;;;;;;34.25;14.48;;;;;;;12.32;100.00;94668.31;4848157;29;20400;-87
2022/05/07 12:13:17;;;;;;;30.23;13.85;;;;;;;12.52;100.00;94664.78;4833551;29;20037;-87
2022/05/07 12:18:30;;;;;;;26.15;15.07;;;;;;;12.87;100.00;94653.25;4850414;29;20032;-88
2022/05/07 12:20:57;;;;;;;31.95;15.20;;;;;;;12.69;100.00;94654.69;4833568;29;20087;-88
2022/05/07 12:31:36;;;;;;;22.40;14.45;;;;;;;13.25;100.00;94649.28;4864602;29;20035;-89
2022/05/07 12:34:02;;;;;;;28.85;15.63;;;;;;;12.98;100.00;94651.34;4832756;29;20029;-88
2022/05/07 12:36:27;;;;;;;28.88;15.85;;;;;;;13.38;100.00;94651.28;4833030;29;20454;-88
2022/05/07 12:38:53;;;;;;;26.25;15.82;;;;;;;13.55;100.00;94648.22;4864482;29;20030;-90
2022/05/07 12:41:19;;;;;;;26.55;15.77;;;;;;;13.68;100.00;94640.72;4832962;29;20085;-88
2022/05/07 12:43:44;;;;;;;35.85;16.45;;;;;;;13.38;100.00;94643.38;4847852;29;20048;-88
2022/05/07 12:46:10;;;;;;;28.83;17.30;;;;;;;13.06;100.00;94638.66;4864538;29;20073;-89
2022/05/07 12:48:36;;;;;;;29.67;16.77;;;;;;;13.22;100.00;94640.09;4864421;29;20040;-90
2022/05/07 12:51:01;;;;;;;34.88;17.83;;;;;;;13.16;100.00;94635.94;4847552;29;20034;-88
2022/05/07 12:53:27;;;;;;;33.63;17.63;;;;;;;13.34;100.00;94639.75;4864594;29;20034;-88
2022/05/07 12:55:52;;;;;;;30.95;16.90;;;;;;;13.70;100.00;94641.22;4847628;29;20394;-89
2022/05/07 12:58:20;;;;;;;28.80;14.15;;;;;;;13.54;100.00;94640.63;4864377;29;20344;-88
2022/05/07 13:00:45;;;;;;;26.58;15.30;;;;;;;12.83;100.00;94640.91;4847931;29;20065;-89
2022/05/07 13:03:18;;;;;;;27.70;15.57;;;;;;;12.45;100.00;94638.81;4847644;29;20557;-90
2022/05/07 13:05:44;;;;;;;35.17;16.88;;;;;;;11.97;100.00;94636.63;4847357;29;20041;-90
2022/05/07 13:08:09;;;;;;;34.92;16.95;;;;;;;11.69;100.00;94634.38;4847767;29;20037;-90
2022/05/07 13:10:44;;;;;;;37.30;16.58;;;;;;;11.74;100.00;94634.34;4846375;29;20045;-90
2022/05/07 13:13:10;;;;;;;29.02;16.42;;;;;;;11.82;100.00;94632.25;4848417;29;20355;-90
2022/05/07 13:15:36;;;;;;;31.63;17.27;;;;;;;11.66;100.00;94632.28;4847617;29;20032;-90
2022/05/07 13:18:02;;;;;;;31.67;17.90;;;;;;;11.73;100.00;94637.25;4864148;29;20124;-90
2022/05/07 13:20:28;;;;;;;34.33;17.27;;;;;;;12.02;100.00;94634.03;4843892;29;20128;-90
2022/05/07 13:22:56;;;;;;;30.67;17.55;;;;;;;11.69;100.00;94637.00;4829580;29;20090;-91
2022/05/07 13:25:25;;;;;;;26.35;16.45;;;;;;;11.94;100.00;94637.97;4822744;29;20040;-90
2022/05/07 13:27:51;;;;;;;27.23;13.73;;;;;;;12.02;100.00;94634.81;4839366;29;20085;-90
2022/05/07 13:30:17;;;;;;;23.95;15.77;;;;;;;11.90;100.00;94631.66;4829461;29;20034;-90
2022/05/07 13:32:48;;;;;;;26.48;15.23;;;;;;;11.81;100.00;94630.69;4831278;29;20041;-90
2022/05/07 13:35:15;;;;;;;23.55;13.45;;;;;;;11.90;100.00;94631.66;4832787;29;20120;-90
2022/05/07 13:37:41;;;;;;;21.05;13.43;;;;;;;11.80;100.00;94629.88;4832687;29;20033;-90
2022/05/07 13:40:07;;;;;;;21.20;13.32;;;;;;;11.53;100.00;94635.47;4831990;29;20030;-90
2022/05/07 13:42:35;;;;;;;25.00;13.63;;;;;;;11.57;100.00;94639.94;4842086;29;20044;-90
2022/05/07 13:45:00;;;;;;;25.33;14.40;;;;;;;11.83;100.00;94626.72;4867055;29;20040;-92
2022/05/07 13:47:26;;;;;;;25.20;14.30;;;;;;;11.83;100.00;94620.69;4866870;29;20037;-90
2022/05/07 13:49:52;;;;;;;32.75;12.88;;;;;;;12.27;100.00;94616.59;4850546;29;20041;-89
2022/05/07 13:52:17;;;;;;;20.00;12.70;;;;;;;12.12;100.00;94620.06;4867194;29;20034;-89
2022/05/07 13:54:43;;;;;;;21.65;13.30;;;;;;;12.43;100.00;94615.44;4867120;29;20043;-90
2022/05/07 13:57:08;;;;;;;22.08;13.02;;;;;;;12.47;100.00;94605.16;4835457;29;20041;-89
2022/05/07 13:59:35;;;;;;;21.38;13.25;;;;;;;12.43;100.00;94614.63;4850370;29;20093;-89
2022/05/07 14:02:02;;;;;;;22.58;11.93;;;;;;;12.48;100.00;94612.00;4851014;29;20033;-89
2022/05/07 14:04:28;;;;;;;17.10;10.77;;;;;;;12.50;100.00;94609.88;4835163;29;20036;-89
2022/05/07 14:06:59;;;;;;;21.60;11.65;;;;;;;12.06;100.00;94626.41;4850342;29;20029;-90